createdAt,value
2019-01-27T00:02:07.611Z,1.02
2019-01-27T00:04:37.415Z,0.98
2019-01-27T00:07:07.556Z,1.12
2019-01-27T00:09:37.788Z,0.90
2019-01-27T00:12:07.627Z,0.90
2019-01-27T00:14:37.478Z,1.25
2019-01-27T00:17:07.411Z,0.90
2019-01-27T00:19:36.982Z,1.12
2019-01-27T00:22:06.644Z,0.95
2019-01-27T00:24:36.547Z,0.90
2019-01-27T00:27:06.403Z,1.02
2019-01-27T00:29:36.286Z,0.90
2019-01-27T00:32:05.826Z,1.05
2019-01-27T00:34:35.807Z,1.10
2019-01-27T00:37:05.421Z,1.20
2019-01-27T00:39:35.035Z,1.20
2019-01-27T00:42:04.861Z,1.12
2019-01-27T00:44:34.730Z,1.62
2019-01-27T00:47:04.580Z,1.40
2019-01-27T00:49:34.173Z,1.65
2019-01-27T00:52:04.071Z,1.22
2019-01-27T00:54:33.595Z,1.30
2019-01-27T00:57:03.209Z,1.07
2019-01-27T00:59:32.777Z,1.30
2019-01-27T01:02:02.364Z,1.25
2019-01-27T01:04:31.982Z,1.20
2019-01-27T01:07:01.811Z,1.30
2019-01-27T01:09:31.652Z,1.72
2019-01-27T01:12:01.232Z,1.07
2019-01-27T01:14:30.851Z,1.45
2019-01-27T01:17:00.752Z,1.00
2019-01-27T01:19:30.367Z,1.70
2019-01-27T01:21:59.939Z,1.37
2019-01-27T01:24:29.523Z,1.20
2019-01-27T01:26:59.175Z,1.17
2019-01-27T01:29:29.041Z,1.30
2019-01-27T01:31:58.589Z,1.40
2019-01-27T01:34:28.179Z,1.00
2019-01-27T01:36:58.047Z,0.98
2019-01-27T01:39:28.156Z,1.20
2019-01-27T01:41:58.031Z,1.00
2019-01-27T01:44:27.843Z,1.20
2019-01-27T01:46:57.732Z,1.10
2019-01-27T01:49:27.595Z,1.20
2019-01-27T01:51:57.442Z,1.52
2019-01-27T01:54:27.256Z,1.25
2019-01-27T01:56:57.127Z,1.75
2019-01-27T01:59:26.739Z,1.30
2019-01-27T02:01:56.280Z,1.67
2019-01-27T02:04:25.890Z,1.35
2019-01-27T02:06:55.781Z,1.30
2019-01-27T02:09:25.920Z,1.45
2019-01-27T02:11:55.718Z,1.00
2019-01-27T02:14:25.547Z,0.90
2019-01-27T02:16:55.131Z,1.67
2019-01-27T02:19:24.948Z,0.80
2019-01-27T02:21:55.136Z,1.02
2019-01-27T02:24:24.667Z,0.95
2019-01-27T02:26:54.531Z,0.93
2019-01-27T02:29:24.102Z,1.20
2019-01-27T02:31:53.952Z,0.80
2019-01-27T02:34:23.779Z,1.20
2019-01-27T02:36:53.333Z,0.68
2019-01-27T02:39:23.685Z,0.90
2019-01-27T02:41:53.526Z,0.90
2019-01-27T02:44:23.101Z,1.00
2019-01-27T02:46:52.934Z,1.12
2019-01-27T02:49:22.795Z,0.80
2019-01-27T02:51:52.390Z,0.65
2019-01-27T02:54:22.440Z,0.70
2019-01-27T02:56:52.291Z,0.75
2019-01-27T02:59:21.822Z,1.10
2019-01-27T03:01:51.401Z,0.70
2019-01-27T03:04:21.510Z,0.80
2019-01-27T03:07:02.029Z,0.80
2019-01-27T03:09:35.272Z,0.90
2019-01-27T03:12:06.110Z,1.00
2019-01-27T03:14:35.947Z,0.70
2019-01-27T03:17:07.187Z,0.90
2019-01-27T03:19:37.017Z,1.00
2019-01-27T03:22:07.015Z,0.70
2019-01-27T03:24:36.617Z,1.00
2019-01-27T03:27:06.390Z,1.00
2019-01-27T03:29:35.963Z,0.75
2019-01-27T03:32:05.667Z,0.80
2019-01-27T03:34:35.192Z,0.85
2019-01-27T03:37:05.008Z,0.70
2019-01-27T03:39:34.563Z,0.60
2019-01-27T03:42:04.139Z,0.78
2019-01-27T03:44:33.711Z,1.20
2019-01-27T03:47:03.291Z,0.57
2019-01-27T03:49:33.379Z,0.75
2019-01-27T03:52:04.550Z,0.80
2019-01-27T03:54:34.344Z,0.90
2019-01-27T03:57:04.267Z,1.20
2019-01-27T03:59:34.065Z,0.95
2019-01-27T04:02:03.597Z,0.82
2019-01-27T04:04:33.521Z,0.70
2019-01-27T04:07:03.120Z,0.82
2019-01-27T04:09:32.966Z,0.75
2019-01-27T04:12:02.561Z,0.90
2019-01-27T04:14:32.399Z,0.72
2019-01-27T04:17:02.540Z,0.60
2019-01-27T04:19:32.080Z,0.60
2019-01-27T04:22:01.929Z,0.60
2019-01-27T04:24:31.825Z,0.95
2019-01-27T04:27:01.362Z,0.88
2019-01-27T04:29:31.199Z,0.85
2019-01-27T04:32:01.058Z,0.82
2019-01-27T04:34:30.552Z,0.60
2019-01-27T04:37:00.452Z,0.55
2019-01-27T04:39:30.276Z,0.85
2019-01-27T04:41:59.826Z,0.60
2019-01-27T04:44:29.450Z,1.35
2019-01-27T04:46:59.039Z,0.70
2019-01-27T04:49:28.611Z,0.70
2019-01-27T04:51:58.129Z,0.47
2019-01-27T04:54:27.719Z,0.85
2019-01-27T04:56:57.298Z,0.60
2019-01-27T04:59:26.876Z,0.65
2019-01-27T05:01:56.439Z,0.70
2019-01-27T05:04:35.042Z,0.70
2019-01-27T05:07:05.060Z,0.50
2019-01-27T05:09:34.896Z,0.50
2019-01-27T05:12:05.071Z,0.50
2019-01-27T05:14:35.124Z,0.78
2019-01-27T05:17:05.422Z,0.45
2019-01-27T05:19:34.955Z,0.65
2019-01-27T05:22:04.616Z,0.60
2019-01-27T05:24:34.225Z,0.55
2019-01-27T05:27:04.063Z,0.50
2019-01-27T05:29:33.665Z,0.60
2019-01-27T05:32:03.259Z,0.50
2019-01-27T05:34:32.855Z,0.60
2019-01-27T05:37:02.763Z,0.60
2019-01-27T05:39:32.239Z,0.68
2019-01-27T05:42:01.811Z,0.80
2019-01-27T05:44:31.418Z,0.40
2019-01-27T05:47:01.782Z,0.70
2019-01-27T05:49:31.843Z,0.47
2019-01-27T05:52:01.984Z,0.60
2019-01-27T05:54:32.067Z,0.72
2019-01-27T05:57:01.940Z,0.60
2019-01-27T05:59:32.009Z,0.60
2019-01-27T06:02:01.601Z,0.40
2019-01-27T06:04:31.495Z,0.70
2019-01-27T06:07:02.282Z,0.57
2019-01-27T06:09:31.828Z,0.70
2019-01-27T06:12:01.375Z,0.40
2019-01-27T06:14:30.964Z,0.40
2019-01-27T06:17:00.761Z,0.65
2019-01-27T06:19:30.679Z,0.57
2019-01-27T06:22:00.279Z,0.93
2019-01-27T06:24:29.837Z,0.47
2019-01-27T06:26:59.443Z,0.65
2019-01-27T06:29:29.017Z,0.60
2019-01-27T06:31:59.104Z,0.70
2019-01-27T06:34:28.902Z,0.78
2019-01-27T06:36:58.690Z,0.60
2019-01-27T06:39:28.279Z,0.80
2019-01-27T06:41:57.843Z,0.90
2019-01-27T06:44:27.954Z,0.60
2019-01-27T06:46:57.504Z,0.53
2019-01-27T06:49:27.356Z,0.60
2019-01-27T06:51:57.160Z,0.70
2019-01-27T06:54:26.980Z,0.90
2019-01-27T06:56:56.553Z,0.60
2019-01-27T06:59:47.086Z,0.57
2019-01-27T07:02:39.195Z,0.60
2019-01-27T07:05:30.350Z,0.70
2019-01-27T07:08:14.463Z,0.60
2019-01-27T07:11:07.398Z,0.80
2019-01-27T07:14:01.665Z,0.95
2019-01-27T07:16:53.229Z,0.60
2019-01-27T07:19:44.460Z,0.55
2019-01-27T07:22:20.799Z,0.60
2019-01-27T07:25:07.856Z,0.57
2019-01-27T07:27:53.366Z,0.40
2019-01-27T07:30:44.865Z,0.70
2019-01-27T07:33:31.579Z,0.53
2019-01-27T07:36:23.075Z,0.50
2019-01-27T07:39:29.783Z,0.72
2019-01-27T07:42:36.252Z,0.60
2019-01-27T07:45:33.110Z,0.50
2019-01-27T07:48:14.025Z,0.70
2019-01-27T07:51:00.883Z,0.70
2019-01-27T07:53:55.369Z,0.72
2019-01-27T07:56:34.095Z,0.65
2019-01-27T07:59:22.629Z,0.65
2019-01-27T08:02:09.744Z,0.65
2019-01-27T08:04:49.203Z,0.70
2019-01-27T08:07:37.921Z,0.60
2019-01-27T08:10:20.597Z,0.75
2019-01-27T08:12:57.854Z,0.70
2019-01-27T08:15:46.361Z,0.60
2019-01-27T08:18:33.423Z,0.53
2019-01-27T08:21:34.032Z,0.70
2019-01-27T08:24:11.039Z,0.70
2019-01-27T08:27:15.027Z,0.80
2019-01-27T08:30:09.431Z,0.72
2019-01-27T08:32:50.275Z,0.50
2019-01-27T08:35:37.145Z,0.80
2019-01-27T08:38:14.816Z,0.55
2019-01-27T08:41:03.589Z,0.60
2019-01-27T08:43:50.754Z,0.95
2019-01-27T08:46:43.197Z,0.78
2019-01-27T08:49:12.822Z,0.65
2019-01-27T08:51:42.409Z,1.10
2019-01-27T08:54:12.035Z,1.00
2019-01-27T08:56:41.599Z,1.80
2019-01-27T08:59:11.107Z,1.27
2019-01-27T09:02:08.942Z,0.93
2019-01-27T09:04:57.707Z,0.98
2019-01-27T09:07:44.832Z,0.88
2019-01-27T09:10:33.329Z,1.27
2019-01-27T09:13:40.095Z,0.98
2019-01-27T09:16:28.603Z,1.00
2019-01-27T09:19:26.479Z,1.12
2019-01-27T09:22:07.219Z,1.27
2019-01-27T09:24:54.114Z,1.10
2019-01-27T09:27:33.163Z,1.42
2019-01-27T09:30:33.696Z,1.17
2019-01-27T09:33:37.859Z,2.10
2019-01-27T09:36:16.843Z,1.32
2019-01-27T09:39:14.516Z,1.35
2019-01-27T09:41:57.631Z,1.00
2019-01-27T09:44:45.741Z,1.00
2019-01-27T09:47:28.130Z,0.60
2019-01-27T09:50:17.526Z,1.12
2019-01-27T09:53:11.790Z,1.32
2019-01-27T09:55:58.860Z,0.68
2019-01-27T09:58:42.644Z,0.85
2019-01-27T10:01:31.114Z,0.75
2019-01-27T10:04:08.067Z,0.80
2019-01-27T10:06:56.790Z,0.88
2019-01-27T10:09:44.163Z,0.90
2019-01-27T10:12:35.644Z,1.00
2019-01-27T10:15:23.139Z,1.10
2019-01-27T10:18:01.640Z,1.10
2019-01-27T10:20:50.391Z,0.70
2019-01-27T10:23:35.014Z,0.95
2019-01-27T10:26:17.734Z,0.82
2019-01-27T10:29:12.163Z,0.80
2019-01-27T10:32:07.097Z,1.10
2019-01-27T10:34:49.861Z,0.75
2019-01-27T10:37:41.641Z,1.05
2019-01-27T10:40:48.978Z,0.70
2019-01-27T10:43:37.543Z,0.70
2019-01-27T10:46:15.395Z,0.95
2019-01-27T10:49:07.158Z,0.93
2019-01-27T10:52:05.501Z,0.90
2019-01-27T10:54:50.205Z,0.80
2019-01-27T10:57:42.523Z,0.62
2019-01-27T11:00:33.271Z,1.50
2019-01-27T11:03:21.741Z,1.02
2019-01-27T11:05:58.570Z,0.60
2019-01-27T11:08:49.801Z,1.00
2019-01-27T11:11:37.952Z,0.62
2019-01-27T11:14:32.723Z,1.10
2019-01-27T11:17:19.705Z,0.90
2019-01-27T11:20:02.145Z,0.65
2019-01-27T11:22:49.575Z,0.90
2019-01-27T11:25:59.425Z,0.95
2019-01-27T11:28:49.231Z,1.05
2019-01-27T11:31:33.059Z,1.05
2019-01-27T11:34:20.682Z,1.20
2019-01-27T11:37:24.337Z,0.75
2019-01-27T11:40:13.040Z,0.70
2019-01-27T11:42:48.544Z,1.15
2019-01-27T11:45:25.916Z,1.20
2019-01-27T11:48:21.011Z,0.98
2019-01-27T11:50:54.415Z,0.68
2019-01-27T11:53:24.007Z,0.95
2019-01-27T11:55:53.619Z,0.82
2019-01-27T11:58:23.475Z,0.82
2019-01-27T12:00:57.125Z,1.20
2019-01-27T12:03:27.020Z,0.60
2019-01-27T12:05:56.610Z,1.00
2019-01-27T12:08:26.164Z,0.70
2019-01-27T12:10:55.752Z,0.98
2019-01-27T12:13:25.335Z,0.72
2019-01-27T12:15:55.128Z,0.70
2019-01-27T12:18:24.706Z,0.75
2019-01-27T12:20:54.531Z,1.00
2019-01-27T12:23:24.062Z,0.90
2019-01-27T12:25:53.663Z,1.05
2019-01-27T12:28:23.501Z,1.12
2019-01-27T12:30:53.079Z,0.88
2019-01-27T12:33:23.203Z,0.90
2019-01-27T12:35:52.720Z,0.50
2019-01-27T12:38:22.598Z,0.60
2019-01-27T12:40:52.396Z,0.60
2019-01-27T12:43:22.255Z,0.72
2019-01-27T12:45:51.831Z,0.60
2019-01-27T12:48:21.674Z,0.78
2019-01-27T12:50:51.291Z,0.50
2019-01-27T12:53:21.348Z,0.50
2019-01-27T12:55:51.207Z,0.50
2019-01-27T12:58:20.767Z,1.00
2019-01-27T13:00:57.346Z,0.75
2019-01-27T13:03:26.897Z,0.80
2019-01-27T13:05:56.700Z,0.88
2019-01-27T13:08:26.313Z,0.62
2019-01-27T13:10:55.867Z,0.70
2019-01-27T13:13:25.469Z,0.93
2019-01-27T13:15:55.304Z,1.17
2019-01-27T13:18:24.840Z,0.70
2019-01-27T13:20:54.706Z,0.53
2019-01-27T13:23:24.264Z,0.60
2019-01-27T13:25:53.897Z,0.75
2019-01-27T13:28:23.711Z,2.10
2019-01-27T13:30:53.338Z,0.80
2019-01-27T13:33:22.880Z,0.70
2019-01-27T13:35:52.746Z,0.85
2019-01-27T13:38:22.600Z,0.70
2019-01-27T13:40:52.537Z,0.80
2019-01-27T13:43:22.166Z,0.80
2019-01-27T13:45:52.261Z,0.85
2019-01-27T13:48:21.837Z,0.70
2019-01-27T13:50:51.695Z,0.60
2019-01-27T13:53:21.235Z,0.75
2019-01-27T13:55:50.854Z,0.80
2019-01-27T13:58:20.927Z,1.00
2019-01-27T14:00:50.517Z,0.90
2019-01-27T14:03:20.104Z,1.30
2019-01-27T14:05:49.676Z,0.93
2019-01-27T14:08:20.982Z,1.72
2019-01-27T14:10:50.638Z,0.90
2019-01-27T14:13:20.211Z,1.07
2019-01-27T14:15:49.759Z,1.30
2019-01-27T14:18:19.343Z,0.82
2019-01-27T14:20:48.920Z,0.88
2019-01-27T14:23:18.505Z,0.60
2019-01-27T14:25:48.072Z,0.68
2019-01-27T14:28:17.672Z,0.50
2019-01-27T14:30:47.560Z,0.60
2019-01-27T14:33:17.630Z,0.90
2019-01-27T14:35:47.241Z,1.10
2019-01-27T14:38:18.631Z,0.80
2019-01-27T14:40:48.603Z,0.90
2019-01-27T14:43:18.215Z,1.30
2019-01-27T14:45:47.764Z,1.77
2019-01-27T14:48:17.629Z,1.22
2019-01-27T14:50:48.453Z,1.05
2019-01-27T14:53:18.084Z,0.65
2019-01-27T14:55:48.198Z,0.55
2019-01-27T14:58:17.887Z,0.90
2019-01-27T15:00:47.804Z,0.85
2019-01-27T15:03:17.641Z,1.00
2019-01-27T15:05:47.231Z,0.88
2019-01-27T15:08:16.804Z,1.10
2019-01-27T15:10:47.146Z,1.00
2019-01-27T15:13:16.705Z,1.10
2019-01-27T15:15:46.501Z,1.02
2019-01-27T15:18:16.048Z,0.57
2019-01-27T15:20:48.455Z,0.75
2019-01-27T15:23:18.183Z,0.93
2019-01-27T15:25:48.046Z,0.80
2019-01-27T15:28:17.911Z,1.55
2019-01-27T15:30:47.482Z,1.00
2019-01-27T15:33:17.103Z,1.10
2019-01-27T15:35:46.939Z,1.50
2019-01-27T15:38:16.843Z,0.75
2019-01-27T15:40:46.382Z,1.30
2019-01-27T15:43:16.233Z,1.27
2019-01-27T15:45:47.884Z,1.35
2019-01-27T15:48:17.820Z,1.42
2019-01-27T15:50:47.941Z,1.75
2019-01-27T15:53:17.463Z,1.82
2019-01-27T15:55:47.053Z,2.30
2019-01-27T15:58:19.418Z,1.50
2019-01-27T16:00:49.226Z,1.50
2019-01-27T16:03:19.293Z,1.52
2019-01-27T16:05:49.123Z,0.90
2019-01-27T16:08:18.912Z,1.15
2019-01-27T16:10:48.557Z,1.40
2019-01-27T16:13:18.453Z,1.60
2019-01-27T16:15:47.995Z,1.40
2019-01-27T16:18:18.022Z,1.35
2019-01-27T16:20:47.627Z,1.07
2019-01-27T16:23:39.253Z,1.35
2019-01-27T16:26:08.990Z,1.52
2019-01-27T16:28:38.820Z,1.27
2019-01-27T16:31:39.139Z,1.62
2019-01-27T16:34:33.991Z,1.10
2019-01-27T16:37:03.557Z,1.67
2019-01-27T16:39:33.159Z,1.20
2019-01-27T16:42:03.012Z,1.62
2019-01-27T16:44:32.836Z,2.33
2019-01-27T16:47:02.688Z,1.65
2019-01-27T16:49:32.498Z,1.70
2019-01-27T16:52:02.358Z,1.90
2019-01-27T16:54:32.344Z,2.30
2019-01-27T16:57:01.922Z,1.20
2019-01-27T16:59:31.786Z,1.22
2019-01-27T17:02:01.630Z,2.17
2019-01-27T17:04:31.566Z,1.35
2019-01-27T17:07:01.714Z,1.10
2019-01-27T17:09:31.356Z,1.37
2019-01-27T17:12:00.949Z,1.40
2019-01-27T17:14:30.556Z,1.72
2019-01-27T17:17:00.604Z,1.47
2019-01-27T17:19:30.267Z,1.40
2019-01-27T17:22:00.044Z,1.30
2019-01-27T17:24:29.642Z,1.07
2019-01-27T17:26:59.262Z,1.62
2019-01-27T17:29:28.819Z,2.25
2019-01-27T17:31:58.414Z,2.20
2019-01-27T17:34:27.979Z,1.95
2019-01-27T17:36:57.824Z,1.50
2019-01-27T17:39:27.407Z,1.60
2019-01-27T17:41:56.946Z,2.00
2019-01-27T17:44:27.179Z,2.55
2019-01-27T17:46:56.794Z,2.58
2019-01-27T17:49:26.332Z,3.77
2019-01-27T17:51:55.910Z,4.00
2019-01-27T17:54:25.776Z,4.33
2019-01-27T17:57:14.472Z,5.53
2019-01-27T18:00:02.154Z,4.45
2019-01-27T18:02:55.586Z,2.80
2019-01-27T18:05:30.952Z,2.72
2019-01-27T18:08:17.687Z,2.35
2019-01-27T18:10:59.139Z,2.00
2019-01-27T18:13:59.507Z,2.25
2019-01-27T18:16:29.046Z,3.27
2019-01-27T18:18:58.616Z,2.87
2019-01-27T18:21:28.199Z,3.47
2019-01-27T18:23:58.102Z,2.50
2019-01-27T18:26:27.693Z,2.60
2019-01-27T18:28:57.502Z,1.82
2019-01-27T18:31:27.396Z,3.20
2019-01-27T18:33:56.972Z,3.20
2019-01-27T18:36:26.504Z,3.00
2019-01-27T18:38:56.142Z,3.45
2019-01-27T18:41:25.771Z,2.72
2019-01-27T18:43:55.403Z,2.90
2019-01-27T18:46:25.191Z,2.62
2019-01-27T18:48:54.853Z,3.00
2019-01-27T18:51:24.679Z,4.28
2019-01-27T18:54:11.791Z,3.50
2019-01-27T18:57:01.787Z,3.35
2019-01-27T18:59:46.769Z,3.22
2019-01-27T19:02:28.324Z,3.22
2019-01-27T19:05:19.726Z,3.75
2019-01-27T19:07:58.954Z,4.97
2019-01-27T19:10:41.581Z,5.00
2019-01-27T19:13:20.171Z,4.42
2019-01-27T19:16:08.667Z,3.67
2019-01-27T19:18:58.650Z,4.35
2019-01-27T19:22:02.310Z,4.85
2019-01-27T19:24:49.427Z,5.35
2019-01-27T19:27:35.948Z,3.55
2019-01-27T19:30:41.740Z,4.60
2019-01-27T19:33:30.503Z,5.00
2019-01-27T19:36:19.261Z,6.00
2019-01-27T19:39:06.419Z,4.80
2019-01-27T19:41:58.188Z,3.45
2019-01-27T19:44:58.830Z,3.60
2019-01-27T19:47:37.780Z,4.60
2019-01-27T19:50:43.041Z,4.15
2019-01-27T19:53:40.413Z,4.75
2019-01-27T19:56:35.345Z,4.80
2019-01-27T19:59:36.320Z,5.35
2019-01-27T20:02:20.584Z,4.25
2019-01-27T20:05:23.985Z,3.65
2019-01-27T20:08:10.106Z,3.65
2019-01-27T20:10:57.988Z,4.10
2019-01-27T20:13:46.491Z,4.72
2019-01-27T20:16:35.371Z,5.50
2019-01-27T20:19:30.020Z,5.17
2019-01-27T20:22:07.649Z,5.90
2019-01-27T20:24:55.168Z,7.60
2019-01-27T20:27:46.936Z,7.37
2019-01-27T20:30:26.790Z,8.43
2019-01-27T20:33:33.272Z,7.30
2019-01-27T20:36:24.498Z,7.72
2019-01-27T20:39:15.798Z,8.50
2019-01-27T20:42:10.213Z,9.68
2019-01-27T20:44:57.234Z,10.25
2019-01-27T20:48:00.623Z,9.40
2019-01-27T20:50:39.761Z,9.08
2019-01-27T20:53:28.243Z,11.40
2019-01-27T20:56:16.792Z,9.03
2019-01-27T20:59:08.360Z,10.25
2019-01-27T21:01:44.815Z,11.75
2019-01-27T21:04:22.352Z,7.55
2019-01-27T21:07:09.268Z,8.03
2019-01-27T21:09:49.221Z,8.58
2019-01-27T21:12:28.330Z,7.35
2019-01-27T21:15:26.145Z,7.30
2019-01-27T21:18:03.665Z,7.10
2019-01-27T21:20:33.252Z,8.05
2019-01-27T21:23:02.825Z,8.00
2019-01-27T21:25:32.533Z,6.25
2019-01-27T21:28:02.110Z,7.05
2019-01-27T21:30:32.017Z,6.55
2019-01-27T21:33:01.896Z,6.50
2019-01-27T21:35:31.986Z,6.53
2019-01-27T21:38:01.648Z,6.10
2019-01-27T21:40:31.208Z,6.47
2019-01-27T21:43:01.036Z,7.05
2019-01-27T21:45:30.658Z,8.45
2019-01-27T21:48:00.195Z,8.25
2019-01-27T21:50:29.837Z,7.33
2019-01-27T21:52:59.683Z,7.47
2019-01-27T21:55:29.570Z,10.45
2019-01-27T21:57:59.426Z,9.30
2019-01-27T22:00:29.089Z,10.72
2019-01-27T22:02:58.681Z,9.05
2019-01-27T22:05:28.315Z,9.70
2019-01-27T22:07:58.137Z,10.53
2019-01-27T22:10:28.027Z,12.15
2019-01-27T22:12:57.922Z,12.23
2019-01-27T22:15:27.598Z,13.45
2019-01-27T22:17:57.175Z,12.58
2019-01-27T22:20:27.004Z,13.25
2019-01-27T22:22:56.634Z,14.30
2019-01-27T22:25:26.234Z,13.58
2019-01-27T22:27:55.774Z,12.78
2019-01-27T22:30:25.412Z,12.37
2019-01-27T22:32:55.264Z,13.22
2019-01-27T22:35:24.804Z,11.95
2019-01-27T22:37:54.652Z,12.00
2019-01-27T22:40:24.224Z,11.60
2019-01-27T22:42:53.852Z,12.60
2019-01-27T22:45:23.459Z,11.55
2019-01-27T22:47:53.593Z,12.28
2019-01-27T22:50:23.201Z,10.82
2019-01-27T22:52:52.799Z,13.28
2019-01-27T22:55:22.405Z,12.40
2019-01-27T22:57:52.326Z,11.60
2019-01-27T23:00:39.998Z,11.48
2019-01-27T23:03:09.869Z,10.68
2019-01-27T23:05:39.470Z,10.95
2019-01-27T23:08:09.037Z,10.15
2019-01-27T23:10:38.625Z,9.78
2019-01-27T23:13:08.284Z,8.48
2019-01-27T23:15:37.881Z,8.60
2019-01-27T23:18:07.473Z,7.53
2019-01-27T23:20:37.020Z,7.10
2019-01-27T23:23:06.605Z,7.30
2019-01-27T23:25:36.213Z,7.87
2019-01-27T23:28:05.745Z,7.75
2019-01-27T23:30:35.322Z,8.18
2019-01-27T23:33:05.219Z,6.70
2019-01-27T23:35:35.116Z,7.33
2019-01-27T23:38:04.798Z,6.35
2019-01-27T23:40:34.906Z,7.00
2019-01-27T23:43:04.510Z,7.08
2019-01-27T23:45:34.437Z,6.37
2019-01-27T23:48:03.979Z,5.97
2019-01-27T23:50:33.552Z,7.28
2019-01-27T23:53:03.389Z,7.30
2019-01-27T23:55:33.007Z,6.65
2019-01-27T23:58:02.529Z,6.45
